»·PEaware :: N717TS KIFP-KPHX

N717TS :: KIFP-KPHX

FLIGHT INFORMATION

Flight Status: Arrived
Operator: Privately registered:
United States
More flights under this callsign
Pilot: Ty S. (2873)
Aircraft: ECLIPSE 500
(EA50)
More flights by this aircraft type
Origin: KIFP Laughlin/Bullhead Intl
United States
Destination: KPHX Phoenix Sky Harbor Intl
United States
More flights between these airports :: More routes between these airports
Route: EED DRK BRUSR1
File this flight plan on PilotEdge
Remarks:
Altitude:
(Current/Filed)
25,000ft
Speed:
(Current/Filed)
350kts
Departed: 22-Apr-18 01:33 PM
Arrived: 22-Apr-18 02:19 PM
Distance/Time
Traveled:
163nm/0:46
Distance/Time
To Go:
Arrived

Flight Plot

Page will automatically refresh every two minutes.

Flight plan parsing failed; only flown route is shown


Map Options




Map Legend


Flown Route
Filed Route
Departure Airport
Arrival Airport
Navaid (VOR, NDB)
Fix

Horizontal Profiles

Position Reports

Time Latitude Longitude Heading Altitude Ground
Speed
22-Apr-18 13:17 35.159758 -114.556367 266 704ft 0kts
22-Apr-18 13:18 35.159758 -114.556367 266 704ft 0kts
22-Apr-18 13:19 35.159758 -114.556367 266 704ft 0kts
22-Apr-18 13:20 35.159758 -114.556367 266 704ft 0kts
22-Apr-18 13:21 35.159758 -114.556367 266 704ft 0kts
22-Apr-18 13:22 35.159758 -114.556367 266 704ft 0kts
22-Apr-18 13:23 35.159758 -114.556367 266 704ft 0kts
22-Apr-18 13:24 35.159758 -114.556367 266 704ft 0kts
22-Apr-18 13:25 35.159758 -114.556367 266 704ft 0kts
22-Apr-18 13:26 35.159758 -114.556367 266 704ft 0kts
22-Apr-18 13:27 35.159758 -114.556367 266 704ft 0kts
22-Apr-18 13:28 35.159758 -114.556367 266 704ft 0kts
22-Apr-18 13:29 35.159632 -114.558257 334 704ft 8kts
22-Apr-18 13:30 35.162439 -114.558535 356 704ft 11kts
22-Apr-18 13:31 35.166159 -114.559029 308 704ft 10kts
22-Apr-18 13:32 35.157038 -114.559515 175 783ft 109kts
22-Apr-18 13:33 35.113962 -114.555071 174 2039ft 205kts
22-Apr-18 13:34 35.054115 -114.548886 174 4538ft 220kts
22-Apr-18 13:35 34.992611 -114.542749 174 7029ft 229kts
22-Apr-18 13:36 34.930462 -114.525002 164 9462ft 236kts
22-Apr-18 13:37 34.873390 -114.507247 165 11478ft 241kts
22-Apr-18 13:38 34.807906 -114.487028 165 13485ft 248kts
22-Apr-18 13:39 34.770684 -114.431561 97 15190ft 257kts
22-Apr-18 13:40 34.764995 -114.348760 95 16746ft 265kts
22-Apr-18 13:41 34.762562 -114.292152 94 17709ft 270kts
22-Apr-18 13:42 34.759534 -114.200173 93 19119ft 278kts
22-Apr-18 13:43 34.756829 -114.105685 93 20392ft 285kts
22-Apr-18 13:44 34.754126 -114.008440 93 21562ft 293kts
22-Apr-18 13:45 34.751330 -113.909083 93 22635ft 299kts
22-Apr-18 13:46 34.748401 -113.807363 93 23628ft 305kts
22-Apr-18 13:47 34.745338 -113.703850 93 24537ft 311kts
22-Apr-18 13:48 34.742094 -113.597143 92 25022ft 329kts
22-Apr-18 13:49 34.738547 -113.483568 92 25022ft 342kts
22-Apr-18 13:50 34.734837 -113.368396 92 25022ft 346kts
22-Apr-18 13:51 34.731258 -113.260344 93 25022ft 348kts
22-Apr-18 13:52 34.727278 -113.143536 93 25060ft 349kts
22-Apr-18 13:53 34.723157 -113.025978 93 25099ft 349kts
22-Apr-18 13:54 34.718935 -112.909316 93 25101ft 350kts
22-Apr-18 13:55 34.714583 -112.791578 92 25101ft 350kts
22-Apr-18 13:56 34.710136 -112.673839 92 25102ft 350kts
22-Apr-18 13:57 34.705575 -112.556492 92 25102ft 350kts
22-Apr-18 13:58 34.670429 -112.452614 136 25102ft 346kts
22-Apr-18 13:59 34.596608 -112.376961 142 24629ft 359kts
22-Apr-18 14:00 34.518853 -112.300981 142 23413ft 364kts
22-Apr-18 14:01 34.439137 -112.228490 162 21895ft 356kts
22-Apr-18 14:02 34.344573 -112.203695 169 19929ft 344kts
22-Apr-18 14:03 34.253798 -112.180304 169 17944ft 333kts
22-Apr-18 14:04 34.165205 -112.157452 169 15945ft 323kts
22-Apr-18 14:05 34.078968 -112.139974 184 13944ft 313kts
22-Apr-18 14:06 33.994007 -112.146776 184 11951ft 304kts
22-Apr-18 14:07 33.912048 -112.156098 188 9956ft 293kts
22-Apr-18 14:08 33.836159 -112.172310 190 8030ft 285kts
22-Apr-18 14:09 33.759845 -112.188489 190 7040ft 281kts
22-Apr-18 14:10 33.683812 -112.204584 189 7041ft 280kts
22-Apr-18 14:11 33.613872 -112.219258 190 6095ft 279kts
22-Apr-18 14:12 33.537965 -112.235522 191 5604ft 279kts
22-Apr-18 14:13 33.463152 -112.244062 165 4509ft 267kts
22-Apr-18 14:14 33.428525 -112.183428 89 3699ft 213kts
22-Apr-18 14:15 33.428836 -112.119779 88 2732ft 182kts
22-Apr-18 14:16 33.428773 -112.071741 89 1924ft 152kts
22-Apr-18 14:17 33.428876 -112.031857 89 1247ft 105kts
22-Apr-18 14:18 33.428400 -112.010995 139 1137ft 4kts
22-Apr-18 14:19 33.427775 -112.013193 269 1137ft 13kts
22-Apr-18 14:20 33.427746 -112.020756 261 1137ft 11kts
22-Apr-18 14:21 33.426734 -112.022130 267 1137ft 0kts
22-Apr-18 14:22 33.426734 -112.022130 267 1137ft 0kts
22-Apr-18 14:23 33.426734 -112.022130 267 1137ft 0kts

Navigation Log

Ident Type
Flight plan parsing failed, navigation log unavailable